sensor_id;sensor_type;location;lat;lon;timestamp;P1;durP1;ratioP1;P2;durP2;ratioP2
38208;SDS011;24016;52.102;11.584;2023-09-18T00:01:36;5.50;;;4.75;;
38208;SDS011;24016;52.102;11.584;2023-09-18T00:04:04;6.78;;;4.25;;
38208;SDS011;24016;52.102;11.584;2023-09-18T00:06:30;7.35;;;4.90;;
38208;SDS011;24016;52.102;11.584;2023-09-18T00:08:56;5.57;;;4.82;;
38208;SDS011;24016;52.102;11.584;2023-09-18T00:11:21;7.20;;;5.07;;
38208;SDS011;24016;52.102;11.584;2023-09-18T00:13:47;4.70;;;4.30;;
38208;SDS011;24016;52.102;11.584;2023-09-18T00:16:12;4.82;;;4.32;;
38208;SDS011;24016;52.102;11.584;2023-09-18T00:18:38;6.10;;;4.82;;
38208;SDS011;24016;52.102;11.584;2023-09-18T00:21:04;6.28;;;4.70;;
38208;SDS011;24016;52.102;11.584;2023-09-18T00:23:31;5.97;;;5.05;;
38208;SDS011;24016;52.102;11.584;2023-09-18T00:26:00;6.80;;;4.88;;
38208;SDS011;24016;52.102;11.584;2023-09-18T00:28:26;6.03;;;5.43;;
38208;SDS011;24016;52.102;11.584;2023-09-18T00:30:51;5.18;;;4.68;;
38208;SDS011;24016;52.102;11.584;2023-09-18T00:33:17;6.20;;;5.20;;
38208;SDS011;24016;52.102;11.584;2023-09-18T00:35:47;6.75;;;5.38;;
38208;SDS011;24016;52.102;11.584;2023-09-18T00:38:14;6.43;;;4.75;;
38208;SDS011;24016;52.102;11.584;2023-09-18T00:40:40;6.97;;;4.80;;
38208;SDS011;24016;52.102;11.584;2023-09-18T00:43:05;7.88;;;5.40;;
38208;SDS011;24016;52.102;11.584;2023-09-18T00:45:31;8.82;;;5.30;;
38208;SDS011;24016;52.102;11.584;2023-09-18T00:47:57;5.28;;;4.78;;
38208;SDS011;24016;52.102;11.584;2023-09-18T00:50:22;7.97;;;5.47;;
38208;SDS011;24016;52.102;11.584;2023-09-18T00:52:49;5.53;;;4.97;;
38208;SDS011;24016;52.102;11.584;2023-09-18T00:55:15;5.75;;;5.00;;
38208;SDS011;24016;52.102;11.584;2023-09-18T00:57:41;5.43;;;4.80;;
38208;SDS011;24016;52.102;11.584;2023-09-18T01:00:07;6.10;;;5.05;;
38208;SDS011;24016;52.102;11.584;2023-09-18T01:02:34;6.45;;;4.95;;
38208;SDS011;24016;52.102;11.584;2023-09-18T01:04:59;6.45;;;5.18;;
38208;SDS011;24016;52.102;11.584;2023-09-18T01:07:25;7.43;;;4.90;;
38208;SDS011;24016;52.102;11.584;2023-09-18T01:09:51;6.30;;;5.70;;
38208;SDS011;24016;52.102;11.584;2023-09-18T01:12:18;8.00;;;5.20;;
38208;SDS011;24016;52.102;11.584;2023-09-18T01:15:07;5.80;;;5.18;;
38208;SDS011;24016;52.102;11.584;2023-09-18T01:17:42;7.93;;;5.45;;
38208;SDS011;24016;52.102;11.584;2023-09-18T01:20:09;5.95;;;5.30;;
38208;SDS011;24016;52.102;11.584;2023-09-18T01:22:35;6.00;;;4.72;;
38208;SDS011;24016;52.102;11.584;2023-09-18T01:25:01;5.82;;;4.80;;
38208;SDS011;24016;52.102;11.584;2023-09-18T01:27:27;5.97;;;5.13;;
38208;SDS011;24016;52.102;11.584;2023-09-18T01:29:53;6.85;;;4.78;;
38208;SDS011;24016;52.102;11.584;2023-09-18T01:32:18;6.68;;;5.47;;
38208;SDS011;24016;52.102;11.584;2023-09-18T01:34:46;7.20;;;5.32;;
38208;SDS011;24016;52.102;11.584;2023-09-18T01:37:13;8.68;;;5.32;;
38208;SDS011;24016;52.102;11.584;2023-09-18T01:39:41;5.95;;;5.20;;
38208;SDS011;24016;52.102;11.584;2023-09-18T01:42:09;10.10;;;5.60;;
38208;SDS011;24016;52.102;11.584;2023-09-18T01:44:35;7.72;;;6.32;;
38208;SDS011;24016;52.102;11.584;2023-09-18T01:47:06;6.57;;;5.68;;
38208;SDS011;24016;52.102;11.584;2023-09-18T01:49:34;6.95;;;5.75;;
38208;SDS011;24016;52.102;11.584;2023-09-18T01:52:01;6.00;;;5.40;;
38208;SDS011;24016;52.102;11.584;2023-09-18T01:54:28;6.82;;;6.03;;
38208;SDS011;24016;52.102;11.584;2023-09-18T01:56:54;7.47;;;5.95;;
38208;SDS011;24016;52.102;11.584;2023-09-18T01:59:20;6.60;;;5.90;;
38208;SDS011;24016;52.102;11.584;2023-09-18T02:01:47;6.00;;;5.40;;
38208;SDS011;24016;52.102;11.584;2023-09-18T02:04:13;6.22;;;5.32;;
38208;SDS011;24016;52.102;11.584;2023-09-18T02:06:38;7.05;;;5.75;;
38208;SDS011;24016;52.102;11.584;2023-09-18T02:09:05;7.30;;;5.45;;
38208;SDS011;24016;52.102;11.584;2023-09-18T02:11:32;7.40;;;6.13;;
38208;SDS011;24016;52.102;11.584;2023-09-18T02:13:58;6.00;;;5.40;;
38208;SDS011;24016;52.102;11.584;2023-09-18T02:16:24;6.68;;;5.38;;
38208;SDS011;24016;52.102;11.584;2023-09-18T02:18:50;6.75;;;5.53;;
38208;SDS011;24016;52.102;11.584;2023-09-18T02:21:22;6.30;;;5.15;;
38208;SDS011;24016;52.102;11.584;2023-09-18T02:23:49;5.68;;;4.88;;
38208;SDS011;24016;52.102;11.584;2023-09-18T02:26:16;9.90;;;5.72;;
38208;SDS011;24016;52.102;11.584;2023-09-18T02:28:42;6.72;;;5.32;;
38208;SDS011;24016;52.102;11.584;2023-09-18T02:31:07;6.03;;;5.43;;
38208;SDS011;24016;52.102;11.584;2023-09-18T02:33:33;6.82;;;5.20;;
38208;SDS011;24016;52.102;11.584;2023-09-18T02:35:59;6.53;;;5.82;;
38208;SDS011;24016;52.102;11.584;2023-09-18T02:38:25;9.27;;;5.90;;
38208;SDS011;24016;52.102;11.584;2023-09-18T02:40:51;8.27;;;5.60;;
38208;SDS011;24016;52.102;11.584;2023-09-18T02:43:18;7.05;;;5.78;;
38208;SDS011;24016;52.102;11.584;2023-09-18T02:45:43;6.22;;;5.40;;
38208;SDS011;24016;52.102;11.584;2023-09-18T02:48:10;6.72;;;5.53;;
38208;SDS011;24016;52.102;11.584;2023-09-18T02:50:36;7.07;;;5.32;;
38208;SDS011;24016;52.102;11.584;2023-09-18T02:53:02;6.75;;;5.97;;
38208;SDS011;24016;52.102;11.584;2023-09-18T02:55:28;9.05;;;5.85;;
38208;SDS011;24016;52.102;11.584;2023-09-18T02:57:54;8.48;;;6.85;;
38208;SDS011;24016;52.102;11.584;2023-09-18T03:00:19;6.82;;;5.60;;
38208;SDS011;24016;52.102;11.584;2023-09-18T03:02:46;6.25;;;5.45;;
38208;SDS011;24016;52.102;11.584;2023-09-18T03:05:11;8.55;;;5.93;;
38208;SDS011;24016;52.102;11.584;2023-09-18T03:07:37;6.78;;;5.78;;
38208;SDS011;24016;52.102;11.584;2023-09-18T03:10:02;7.53;;;5.95;;
38208;SDS011;24016;52.102;11.584;2023-09-18T03:12:29;7.22;;;6.20;;
38208;SDS011;24016;52.102;11.584;2023-09-18T03:14:55;7.20;;;6.47;;
38208;SDS011;24016;52.102;11.584;2023-09-18T03:17:21;11.50;;;6.97;;
38208;SDS011;24016;52.102;11.584;2023-09-18T03:19:49;6.65;;;5.90;;
38208;SDS011;24016;52.102;11.584;2023-09-18T03:22:15;7.32;;;6.18;;
38208;SDS011;24016;52.102;11.584;2023-09-18T03:24:41;7.13;;;5.63;;
38208;SDS011;24016;52.102;11.584;2023-09-18T03:27:06;6.82;;;5.90;;
38208;SDS011;24016;52.102;11.584;2023-09-18T03:29:32;6.80;;;5.63;;
38208;SDS011;24016;52.102;11.584;2023-09-18T03:31:57;7.97;;;6.45;;
38208;SDS011;24016;52.102;11.584;2023-09-18T03:34:24;7.82;;;7.03;;
38208;SDS011;24016;52.102;11.584;2023-09-18T03:36:53;9.60;;;6.70;;
38208;SDS011;24016;52.102;11.584;2023-09-18T03:39:19;8.45;;;6.60;;
38208;SDS011;24016;52.102;11.584;2023-09-18T03:41:45;7.10;;;6.40;;
38208;SDS011;24016;52.102;11.584;2023-09-18T03:44:10;6.72;;;6.03;;
38208;SDS011;24016;52.102;11.584;2023-09-18T03:46:36;7.95;;;6.43;;
38208;SDS011;24016;52.102;11.584;2023-09-18T03:49:02;9.80;;;6.60;;
38208;SDS011;24016;52.102;11.584;2023-09-18T03:51:28;8.68;;;6.20;;
38208;SDS011;24016;52.102;11.584;2023-09-18T03:53:54;7.78;;;6.65;;
38208;SDS011;24016;52.102;11.584;2023-09-18T03:56:21;8.13;;;6.45;;
38208;SDS011;24016;52.102;11.584;2023-09-18T03:58:47;7.07;;;6.38;;
38208;SDS011;24016;52.102;11.584;2023-09-18T04:01:15;8.73;;;6.70;;
38208;SDS011;24016;52.102;11.584;2023-09-18T04:03:40;11.30;;;6.50;;
38208;SDS011;24016;52.102;11.584;2023-09-18T04:06:07;10.50;;;6.78;;
38208;SDS011;24016;52.102;11.584;2023-09-18T04:08:32;7.40;;;6.60;;
38208;SDS011;24016;52.102;11.584;2023-09-18T04:10:58;8.70;;;6.80;;
38208;SDS011;24016;52.102;11.584;2023-09-18T04:13:24;6.93;;;6.22;;
38208;SDS011;24016;52.102;11.584;2023-09-18T04:15:49;7.60;;;6.40;;
38208;SDS011;24016;52.102;11.584;2023-09-18T04:18:15;8.85;;;6.80;;
38208;SDS011;24016;52.102;11.584;2023-09-18T04:20:41;10.32;;;6.25;;
38208;SDS011;24016;52.102;11.584;2023-09-18T04:23:16;7.70;;;6.45;;
38208;SDS011;24016;52.102;11.584;2023-09-18T04:25:52;6.72;;;6.03;;
38208;SDS011;24016;52.102;11.584;2023-09-18T04:28:19;8.73;;;6.80;;
38208;SDS011;24016;52.102;11.584;2023-09-18T04:30:47;8.52;;;7.00;;
38208;SDS011;24016;52.102;11.584;2023-09-18T04:33:13;10.63;;;7.15;;
38208;SDS011;24016;52.102;11.584;2023-09-18T04:35:39;7.97;;;7.20;;
38208;SDS011;24016;52.102;11.584;2023-09-18T04:38:06;9.02;;;7.32;;
38208;SDS011;24016;52.102;11.584;2023-09-18T04:40:33;8.57;;;7.07;;
38208;SDS011;24016;52.102;11.584;2023-09-18T04:42:59;10.25;;;6.80;;
38208;SDS011;24016;52.102;11.584;2023-09-18T04:45:26;8.23;;;7.22;;
38208;SDS011;24016;52.102;11.584;2023-09-18T04:47:52;7.97;;;7.18;;
38208;SDS011;24016;52.102;11.584;2023-09-18T04:50:18;9.43;;;6.75;;
38208;SDS011;24016;52.102;11.584;2023-09-18T04:52:43;7.50;;;6.70;;
38208;SDS011;24016;52.102;11.584;2023-09-18T04:55:09;8.13;;;6.03;;
38208;SDS011;24016;52.102;11.584;2023-09-18T04:57:36;8.73;;;6.60;;
38208;SDS011;24016;52.102;11.584;2023-09-18T05:00:02;7.20;;;6.45;;
38208;SDS011;24016;52.102;11.584;2023-09-18T05:02:33;7.10;;;6.40;;
38208;SDS011;24016;52.102;11.584;2023-09-18T05:04:59;6.90;;;5.63;;
38208;SDS011;24016;52.102;11.584;2023-09-18T05:07:25;7.35;;;6.18;;
38208;SDS011;24016;52.102;11.584;2023-09-18T05:09:51;8.77;;;7.00;;
38208;SDS011;24016;52.102;11.584;2023-09-18T05:12:17;9.43;;;6.50;;
38208;SDS011;24016;52.102;11.584;2023-09-18T05:14:43;10.35;;;6.60;;
38208;SDS011;24016;52.102;11.584;2023-09-18T05:17:09;8.80;;;6.60;;
38208;SDS011;24016;52.102;11.584;2023-09-18T05:19:36;7.88;;;6.45;;
38208;SDS011;24016;52.102;11.584;2023-09-18T05:22:02;7.05;;;5.93;;
38208;SDS011;24016;52.102;11.584;2023-09-18T05:24:27;11.93;;;6.40;;
38208;SDS011;24016;52.102;11.584;2023-09-18T05:26:54;9.02;;;6.03;;
38208;SDS011;24016;52.102;11.584;2023-09-18T05:29:19;7.10;;;5.95;;
38208;SDS011;24016;52.102;11.584;2023-09-18T05:31:45;11.15;;;6.28;;
38208;SDS011;24016;52.102;11.584;2023-09-18T05:34:11;9.93;;;7.68;;
38208;SDS011;24016;52.102;11.584;2023-09-18T05:36:37;7.43;;;6.57;;
38208;SDS011;24016;52.102;11.584;2023-09-18T05:39:03;7.72;;;6.22;;
38208;SDS011;24016;52.102;11.584;2023-09-18T05:41:29;6.13;;;5.53;;
38208;SDS011;24016;52.102;11.584;2023-09-18T05:43:56;7.00;;;5.65;;
38208;SDS011;24016;52.102;11.584;2023-09-18T05:46:21;6.43;;;5.35;;
38208;SDS011;24016;52.102;11.584;2023-09-18T05:48:47;6.60;;;5.90;;
38208;SDS011;24016;52.102;11.584;2023-09-18T05:51:13;7.65;;;5.80;;
38208;SDS011;24016;52.102;11.584;2023-09-18T05:53:38;5.85;;;5.25;;
38208;SDS011;24016;52.102;11.584;2023-09-18T05:56:04;8.40;;;5.30;;
38208;SDS011;24016;52.102;11.584;2023-09-18T05:58:33;5.82;;;5.20;;
38208;SDS011;24016;52.102;11.584;2023-09-18T06:01:00;5.95;;;5.25;;
38208;SDS011;24016;52.102;11.584;2023-09-18T06:03:28;6.13;;;5.30;;
38208;SDS011;24016;52.102;11.584;2023-09-18T06:06:00;6.07;;;5.32;;
38208;SDS011;24016;52.102;11.584;2023-09-18T06:08:26;6.65;;;5.25;;
38208;SDS011;24016;52.102;11.584;2023-09-18T06:10:53;8.32;;;5.13;;
38208;SDS011;24016;52.102;11.584;2023-09-18T06:13:20;7.38;;;5.50;;
38208;SDS011;24016;52.102;11.584;2023-09-18T06:15:46;9.65;;;5.43;;
38208;SDS011;24016;52.102;11.584;2023-09-18T06:18:11;6.57;;;5.10;;
38208;SDS011;24016;52.102;11.584;2023-09-18T06:20:38;6.25;;;4.90;;
38208;SDS011;24016;52.102;11.584;2023-09-18T06:23:04;9.32;;;5.50;;
38208;SDS011;24016;52.102;11.584;2023-09-18T06:25:30;6.57;;;5.10;;
38208;SDS011;24016;52.102;11.584;2023-09-18T06:27:56;7.00;;;5.15;;
38208;SDS011;24016;52.102;11.584;2023-09-18T06:30:22;6.53;;;4.80;;
38208;SDS011;24016;52.102;11.584;2023-09-18T06:32:47;5.90;;;5.05;;
38208;SDS011;24016;52.102;11.584;2023-09-18T06:35:13;9.50;;;5.00;;
38208;SDS011;24016;52.102;11.584;2023-09-18T06:37:39;6.93;;;4.70;;
38208;SDS011;24016;52.102;11.584;2023-09-18T06:40:04;7.28;;;4.50;;
38208;SDS011;24016;52.102;11.584;2023-09-18T06:42:31;6.97;;;5.20;;
38208;SDS011;24016;52.102;11.584;2023-09-18T06:44:57;6.53;;;4.75;;
38208;SDS011;24016;52.102;11.584;2023-09-18T06:47:23;7.80;;;4.45;;
38208;SDS011;24016;52.102;11.584;2023-09-18T06:49:49;10.00;;;5.22;;
38208;SDS011;24016;52.102;11.584;2023-09-18T06:52:16;8.77;;;5.38;;
38208;SDS011;24016;52.102;11.584;2023-09-18T06:54:41;8.18;;;3.97;;
38208;SDS011;24016;52.102;11.584;2023-09-18T06:57:08;6.05;;;4.25;;
38208;SDS011;24016;52.102;11.584;2023-09-18T06:59:34;9.70;;;4.55;;
38208;SDS011;24016;52.102;11.584;2023-09-18T07:02:00;9.25;;;4.55;;
38208;SDS011;24016;52.102;11.584;2023-09-18T07:04:26;5.25;;;4.53;;
38208;SDS011;24016;52.102;11.584;2023-09-18T07:06:52;6.10;;;4.68;;
38208;SDS011;24016;52.102;11.584;2023-09-18T07:09:21;5.65;;;4.50;;
38208;SDS011;24016;52.102;11.584;2023-09-18T07:11:48;7.25;;;4.38;;
38208;SDS011;24016;52.102;11.584;2023-09-18T07:14:14;7.85;;;4.22;;
38208;SDS011;24016;52.102;11.584;2023-09-18T07:16:40;7.72;;;4.47;;
38208;SDS011;24016;52.102;11.584;2023-09-18T07:19:05;4.75;;;4.25;;
38208;SDS011;24016;52.102;11.584;2023-09-18T07:21:31;6.00;;;4.13;;
38208;SDS011;24016;52.102;11.584;2023-09-18T07:23:58;6.22;;;3.80;;
38208;SDS011;24016;52.102;11.584;2023-09-18T07:26:23;5.50;;;4.10;;
38208;SDS011;24016;52.102;11.584;2023-09-18T07:28:49;5.80;;;4.03;;
38208;SDS011;24016;52.102;11.584;2023-09-18T07:31:15;8.00;;;3.80;;
38208;SDS011;24016;52.102;11.584;2023-09-18T07:33:40;5.90;;;3.70;;
38208;SDS011;24016;52.102;11.584;2023-09-18T07:36:06;6.05;;;4.00;;
38208;SDS011;24016;52.102;11.584;2023-09-18T07:38:33;7.18;;;3.70;;
38208;SDS011;24016;52.102;11.584;2023-09-18T07:40:59;4.47;;;3.40;;
38208;SDS011;24016;52.102;11.584;2023-09-18T07:43:24;6.63;;;3.63;;
38208;SDS011;24016;52.102;11.584;2023-09-18T07:45:50;4.63;;;3.75;;
38208;SDS011;24016;52.102;11.584;2023-09-18T07:48:16;7.28;;;3.75;;
38208;SDS011;24016;52.102;11.584;2023-09-18T07:50:44;8.20;;;4.00;;
38208;SDS011;24016;52.102;11.584;2023-09-18T07:53:10;5.95;;;4.03;;
38208;SDS011;24016;52.102;11.584;2023-09-18T07:55:36;4.40;;;3.50;;
38208;SDS011;24016;52.102;11.584;2023-09-18T07:58:02;5.72;;;3.50;;
38208;SDS011;24016;52.102;11.584;2023-09-18T08:00:29;6.72;;;4.00;;
38208;SDS011;24016;52.102;11.584;2023-09-18T08:02:55;4.60;;;3.42;;
38208;SDS011;24016;52.102;11.584;2023-09-18T08:05:25;9.77;;;3.70;;
38208;SDS011;24016;52.102;11.584;2023-09-18T08:07:56;6.30;;;4.15;;
38208;SDS011;24016;52.102;11.584;2023-09-18T08:10:23;4.57;;;3.70;;
38208;SDS011;24016;52.102;11.584;2023-09-18T08:12:50;8.15;;;3.67;;
38208;SDS011;24016;52.102;11.584;2023-09-18T08:15:17;5.32;;;3.60;;
38208;SDS011;24016;52.102;11.584;2023-09-18T08:17:43;4.93;;;3.60;;
38208;SDS011;24016;52.102;11.584;2023-09-18T08:20:11;8.45;;;4.03;;
38208;SDS011;24016;52.102;11.584;2023-09-18T08:22:40;6.10;;;3.80;;
38208;SDS011;24016;52.102;11.584;2023-09-18T08:25:06;5.85;;;3.75;;
38208;SDS011;24016;52.102;11.584;2023-09-18T08:27:36;5.07;;;3.83;;
38208;SDS011;24016;52.102;11.584;2023-09-18T08:30:07;8.35;;;3.95;;
38208;SDS011;24016;52.102;11.584;2023-09-18T08:32:34;6.93;;;4.00;;
38208;SDS011;24016;52.102;11.584;2023-09-18T08:35:00;5.70;;;3.47;;
38208;SDS011;24016;52.102;11.584;2023-09-18T08:37:27;5.65;;;3.40;;
38208;SDS011;24016;52.102;11.584;2023-09-18T08:39:52;11.70;;;4.32;;
38208;SDS011;24016;52.102;11.584;2023-09-18T08:42:19;5.40;;;3.08;;
38208;SDS011;24016;52.102;11.584;2023-09-18T08:44:46;8.10;;;3.70;;
38208;SDS011;24016;52.102;11.584;2023-09-18T08:47:15;6.35;;;3.50;;
38208;SDS011;24016;52.102;11.584;2023-09-18T08:49:43;4.82;;;3.28;;
38208;SDS011;24016;52.102;11.584;2023-09-18T08:52:11;7.30;;;3.42;;
38208;SDS011;24016;52.102;11.584;2023-09-18T08:54:39;10.93;;;3.45;;
38208;SDS011;24016;52.102;11.584;2023-09-18T08:57:05;11.85;;;3.50;;
38208;SDS011;24016;52.102;11.584;2023-09-18T08:59:33;6.43;;;2.90;;
38208;SDS011;24016;52.102;11.584;2023-09-18T09:02:00;8.38;;;3.30;;
38208;SDS011;24016;52.102;11.584;2023-09-18T09:04:25;10.77;;;3.13;;
38208;SDS011;24016;52.102;11.584;2023-09-18T09:06:51;5.95;;;3.05;;
38208;SDS011;24016;52.102;11.584;2023-09-18T09:09:17;5.40;;;2.78;;
38208;SDS011;24016;52.102;11.584;2023-09-18T09:11:50;5.28;;;3.13;;
38208;SDS011;24016;52.102;11.584;2023-09-18T09:14:16;5.18;;;2.83;;
38208;SDS011;24016;52.102;11.584;2023-09-18T09:16:47;9.38;;;3.30;;
38208;SDS011;24016;52.102;11.584;2023-09-18T09:19:15;9.43;;;3.47;;
38208;SDS011;24016;52.102;11.584;2023-09-18T09:21:42;6.63;;;3.13;;
38208;SDS011;24016;52.102;11.584;2023-09-18T09:24:08;3.50;;;2.90;;
38208;SDS011;24016;52.102;11.584;2023-09-18T09:26:44;5.80;;;3.10;;
38208;SDS011;24016;52.102;11.584;2023-09-18T09:29:23;5.20;;;3.00;;
38208;SDS011;24016;52.102;11.584;2023-09-18T09:31:49;9.02;;;3.15;;
38208;SDS011;24016;52.102;11.584;2023-09-18T09:34:25;4.45;;;3.00;;
38208;SDS011;24016;52.102;11.584;2023-09-18T09:36:52;9.45;;;3.30;;
38208;SDS011;24016;52.102;11.584;2023-09-18T09:39:19;5.38;;;3.00;;
38208;SDS011;24016;52.102;11.584;2023-09-18T09:41:48;7.13;;;3.10;;
38208;SDS011;24016;52.102;11.584;2023-09-18T09:44:14;4.25;;;2.85;;
38208;SDS011;24016;52.102;11.584;2023-09-18T09:46:49;14.30;;;3.40;;
38208;SDS011;24016;52.102;11.584;2023-09-18T09:49:16;7.50;;;3.10;;
38208;SDS011;24016;52.102;11.584;2023-09-18T09:51:44;6.00;;;2.83;;
38208;SDS011;24016;52.102;11.584;2023-09-18T09:54:10;6.55;;;2.60;;
38208;SDS011;24016;52.102;11.584;2023-09-18T09:56:47;6.78;;;3.20;;
38208;SDS011;24016;52.102;11.584;2023-09-18T09:59:15;5.78;;;3.17;;
38208;SDS011;24016;52.102;11.584;2023-09-18T10:01:43;11.70;;;3.17;;
38208;SDS011;24016;52.102;11.584;2023-09-18T10:04:13;15.25;;;3.75;;
38208;SDS011;24016;52.102;11.584;2023-09-18T10:06:43;6.63;;;2.63;;
38208;SDS011;24016;52.102;11.584;2023-09-18T10:09:10;6.90;;;3.35;;
38208;SDS011;24016;52.102;11.584;2023-09-18T10:11:40;5.72;;;3.17;;
38208;SDS011;24016;52.102;11.584;2023-09-18T10:14:16;6.03;;;3.35;;
38208;SDS011;24016;52.102;11.584;2023-09-18T10:16:45;8.45;;;3.35;;
38208;SDS011;24016;52.102;11.584;2023-09-18T10:21:49;6.63;;;3.40;;
38208;SDS011;24016;52.102;11.584;2023-09-18T10:24:31;7.55;;;3.67;;
38208;SDS011;24016;52.102;11.584;2023-09-18T10:27:02;6.38;;;2.95;;
38208;SDS011;24016;52.102;11.584;2023-09-18T10:29:31;6.13;;;3.38;;
38208;SDS011;24016;52.102;11.584;2023-09-18T10:31:59;6.80;;;3.35;;
38208;SDS011;24016;52.102;11.584;2023-09-18T10:34:27;6.32;;;3.47;;
38208;SDS011;24016;52.102;11.584;2023-09-18T10:36:55;4.10;;;3.00;;
38208;SDS011;24016;52.102;11.584;2023-09-18T10:39:23;5.68;;;3.35;;
38208;SDS011;24016;52.102;11.584;2023-09-18T10:41:55;7.95;;;2.90;;
38208;SDS011;24016;52.102;11.584;2023-09-18T10:44:22;6.32;;;2.97;;
38208;SDS011;24016;52.102;11.584;2023-09-18T10:46:48;3.78;;;2.90;;
38208;SDS011;24016;52.102;11.584;2023-09-18T10:49:16;6.90;;;3.00;;
38208;SDS011;24016;52.102;11.584;2023-09-18T10:51:43;4.35;;;3.00;;
38208;SDS011;24016;52.102;11.584;2023-09-18T10:54:11;8.07;;;2.80;;
38208;SDS011;24016;52.102;11.584;2023-09-18T10:56:41;4.28;;;2.72;;
38208;SDS011;24016;52.102;11.584;2023-09-18T10:59:07;7.13;;;3.10;;
38208;SDS011;24016;52.102;11.584;2023-09-18T11:01:36;13.50;;;3.13;;
38208;SDS011;24016;52.102;11.584;2023-09-18T11:04:05;7.18;;;3.08;;
38208;SDS011;24016;52.102;11.584;2023-09-18T11:09:20;7.45;;;2.60;;
38208;SDS011;24016;52.102;11.584;2023-09-18T11:11:52;14.80;;;3.45;;
38208;SDS011;24016;52.102;11.584;2023-09-18T11:14:21;9.55;;;3.22;;
38208;SDS011;24016;52.102;11.584;2023-09-18T11:16:48;8.45;;;2.72;;
38208;SDS011;24016;52.102;11.584;2023-09-18T11:19:18;6.60;;;2.50;;
38208;SDS011;24016;52.102;11.584;2023-09-18T11:21:44;7.97;;;3.05;;
38208;SDS011;24016;52.102;11.584;2023-09-18T11:24:19;15.23;;;3.28;;
38208;SDS011;24016;52.102;11.584;2023-09-18T11:26:47;13.77;;;2.90;;
38208;SDS011;24016;52.102;11.584;2023-09-18T11:29:14;10.60;;;2.60;;
38208;SDS011;24016;52.102;11.584;2023-09-18T11:31:45;9.05;;;2.53;;
38208;SDS011;24016;52.102;11.584;2023-09-18T11:34:24;4.80;;;2.33;;
38208;SDS011;24016;52.102;11.584;2023-09-18T11:36:52;5.68;;;2.13;;
38208;SDS011;24016;52.102;11.584;2023-09-18T11:39:34;5.75;;;2.03;;
38208;SDS011;24016;52.102;11.584;2023-09-18T11:44:33;8.43;;;2.33;;
38208;SDS011;24016;52.102;11.584;2023-09-18T11:47:00;6.80;;;2.30;;
38208;SDS011;24016;52.102;11.584;2023-09-18T11:49:25;14.63;;;2.25;;
38208;SDS011;24016;52.102;11.584;2023-09-18T11:51:52;6.70;;;2.08;;
38208;SDS011;24016;52.102;11.584;2023-09-18T11:54:18;6.13;;;2.10;;
38208;SDS011;24016;52.102;11.584;2023-09-18T11:56:44;9.00;;;2.50;;
38208;SDS011;24016;52.102;11.584;2023-09-18T11:59:10;3.75;;;1.88;;
38208;SDS011;24016;52.102;11.584;2023-09-18T12:01:37;5.45;;;2.08;;
38208;SDS011;24016;52.102;11.584;2023-09-18T12:04:05;5.07;;;1.88;;
38208;SDS011;24016;52.102;11.584;2023-09-18T12:06:35;5.03;;;1.90;;
38208;SDS011;24016;52.102;11.584;2023-09-18T12:09:01;5.95;;;1.70;;
38208;SDS011;24016;52.102;11.584;2023-09-18T12:11:28;4.97;;;1.73;;
38208;SDS011;24016;52.102;11.584;2023-09-18T12:13:55;8.52;;;1.95;;
38208;SDS011;24016;52.102;11.584;2023-09-18T12:16:20;7.85;;;2.30;;
38208;SDS011;24016;52.102;11.584;2023-09-18T12:18:47;5.75;;;2.08;;
38208;SDS011;24016;52.102;11.584;2023-09-18T12:21:14;6.50;;;1.95;;
38208;SDS011;24016;52.102;11.584;2023-09-18T12:23:42;4.82;;;1.77;;
38208;SDS011;24016;52.102;11.584;2023-09-18T12:26:12;5.45;;;1.88;;
38208;SDS011;24016;52.102;11.584;2023-09-18T12:28:39;8.38;;;2.25;;
38208;SDS011;24016;52.102;11.584;2023-09-18T12:31:06;3.95;;;1.95;;
38208;SDS011;24016;52.102;11.584;2023-09-18T12:33:36;4.90;;;1.90;;
38208;SDS011;24016;52.102;11.584;2023-09-18T12:36:02;5.72;;;2.05;;
38208;SDS011;24016;52.102;11.584;2023-09-18T12:38:30;5.65;;;1.77;;
38208;SDS011;24016;52.102;11.584;2023-09-18T12:40:56;5.13;;;2.03;;
38208;SDS011;24016;52.102;11.584;2023-09-18T12:43:30;4.40;;;1.95;;
38208;SDS011;24016;52.102;11.584;2023-09-18T12:46:01;6.87;;;1.97;;
38208;SDS011;24016;52.102;11.584;2023-09-18T12:48:28;7.53;;;1.92;;
38208;SDS011;24016;52.102;11.584;2023-09-18T12:50:54;4.32;;;1.90;;
38208;SDS011;24016;52.102;11.584;2023-09-18T12:53:21;5.25;;;2.17;;
38208;SDS011;24016;52.102;11.584;2023-09-18T12:55:47;6.60;;;2.13;;
38208;SDS011;24016;52.102;11.584;2023-09-18T12:58:17;8.38;;;1.88;;
38208;SDS011;24016;52.102;11.584;2023-09-18T13:00:47;4.30;;;1.80;;
38208;SDS011;24016;52.102;11.584;2023-09-18T13:03:17;6.53;;;2.08;;
38208;SDS011;24016;52.102;11.584;2023-09-18T13:05:43;10.07;;;2.15;;
38208;SDS011;24016;52.102;11.584;2023-09-18T13:08:09;8.02;;;2.20;;
38208;SDS011;24016;52.102;11.584;2023-09-18T13:10:43;6.47;;;2.05;;
38208;SDS011;24016;52.102;11.584;2023-09-18T13:13:15;5.55;;;1.75;;
38208;SDS011;24016;52.102;11.584;2023-09-18T13:15:42;5.78;;;1.90;;
38208;SDS011;24016;52.102;11.584;2023-09-18T13:18:11;6.35;;;1.85;;
38208;SDS011;24016;52.102;11.584;2023-09-18T13:20:37;9.15;;;2.95;;
38208;SDS011;24016;52.102;11.584;2023-09-18T13:23:04;5.13;;;1.77;;
38208;SDS011;24016;52.102;11.584;2023-09-18T13:25:31;8.98;;;1.80;;
38208;SDS011;24016;52.102;11.584;2023-09-18T13:28:03;6.32;;;1.98;;
38208;SDS011;24016;52.102;11.584;2023-09-18T13:30:30;5.43;;;1.45;;
38208;SDS011;24016;52.102;11.584;2023-09-18T13:33:02;8.30;;;2.03;;
38208;SDS011;24016;52.102;11.584;2023-09-18T13:35:29;7.40;;;1.80;;
38208;SDS011;24016;52.102;11.584;2023-09-18T13:37:55;5.20;;;1.70;;
38208;SDS011;24016;52.102;11.584;2023-09-18T13:40:20;8.80;;;2.45;;
38208;SDS011;24016;52.102;11.584;2023-09-18T13:42:47;5.13;;;2.00;;
38208;SDS011;24016;52.102;11.584;2023-09-18T13:45:14;6.22;;;1.90;;
38208;SDS011;24016;52.102;11.584;2023-09-18T13:47:41;6.85;;;1.70;;
38208;SDS011;24016;52.102;11.584;2023-09-18T13:50:07;4.35;;;1.52;;
38208;SDS011;24016;52.102;11.584;2023-09-18T13:52:38;7.32;;;1.77;;
38208;SDS011;24016;52.102;11.584;2023-09-18T13:55:03;7.68;;;2.15;;
38208;SDS011;24016;52.102;11.584;2023-09-18T13:57:34;9.23;;;1.90;;
38208;SDS011;24016;52.102;11.584;2023-09-18T14:00:00;6.03;;;1.85;;
38208;SDS011;24016;52.102;11.584;2023-09-18T14:02:32;4.47;;;1.55;;
38208;SDS011;24016;52.102;11.584;2023-09-18T14:04:58;3.88;;;1.90;;
38208;SDS011;24016;52.102;11.584;2023-09-18T14:07:23;7.72;;;1.80;;
38208;SDS011;24016;52.102;11.584;2023-09-18T14:09:49;7.10;;;1.75;;
38208;SDS011;24016;52.102;11.584;2023-09-18T14:12:15;6.57;;;1.70;;
38208;SDS011;24016;52.102;11.584;2023-09-18T14:14:43;3.95;;;1.77;;
38208;SDS011;24016;52.102;11.584;2023-09-18T14:17:10;6.68;;;2.50;;
38208;SDS011;24016;52.102;11.584;2023-09-18T14:19:35;5.22;;;1.92;;
38208;SDS011;24016;52.102;11.584;2023-09-18T14:22:07;6.72;;;1.90;;
38208;SDS011;24016;52.102;11.584;2023-09-18T14:24:33;5.50;;;1.67;;
38208;SDS011;24016;52.102;11.584;2023-09-18T14:26:59;6.13;;;2.17;;
38208;SDS011;24016;52.102;11.584;2023-09-18T14:29:26;6.88;;;2.00;;
38208;SDS011;24016;52.102;11.584;2023-09-18T14:31:52;5.45;;;1.70;;
38208;SDS011;24016;52.102;11.584;2023-09-18T14:34:17;4.65;;;1.92;;
38208;SDS011;24016;52.102;11.584;2023-09-18T14:36:43;5.18;;;1.85;;
38208;SDS011;24016;52.102;11.584;2023-09-18T14:39:09;7.57;;;2.10;;
38208;SDS011;24016;52.102;11.584;2023-09-18T14:41:36;5.22;;;1.75;;